Time;durP1;ratioP1;P1;durP2;ratioP2;P2;SDS_P1;SDS_P2;PMS_P1;PMS_P2;Temp;Humidity;BMP_temperature;BMP_pressure;BME280_temperature;BME280_humidity;BME280_pressure;Samples;Min_cycle;Max_cycle;Signal;HPM_P1;HPM_P2
2022/01/14 00:00:32;;;;;;;0.30;0.30;;;;;;;;;;1716010;28;20661;-71
2022/01/14 00:01:24;;;;;;;0.15;0.15;;;;;;;;;;1719325;28;20208;-71
2022/01/14 00:02:16;;;;;;;0.17;0.17;;;;;;;;;;1725490;28;20266;-71
2022/01/14 00:03:07;;;;;;;0.00;0.00;;;;;;;;;;1725774;28;20208;-71
2022/01/14 00:03:59;;;;;;;0.10;0.10;;;;;;;;;;1725617;28;20192;-71
2022/01/14 00:04:50;;;;;;;0.10;0.10;;;;;;;;;;1725693;28;20208;-71
2022/01/14 00:05:43;;;;;;;0.10;0.10;;;;;;;;;;1723399;28;20236;-71
2022/01/14 00:06:34;;;;;;;0.08;0.08;;;;;;;;;;1725365;28;20208;-71
2022/01/14 00:07:26;;;;;;;0.10;0.10;;;;;;;;;;1724778;28;20216;-71
2022/01/14 00:08:19;;;;;;;0.00;0.00;;;;;;;;;;1725428;28;20955;-71
2022/01/14 00:09:13;;;;;;;0.10;0.10;;;;;;;;;;1725549;28;20235;-71
2022/01/14 00:10:07;;;;;;;0.00;0.00;;;;;;;;;;1725012;28;20223;-71
2022/01/14 00:11:00;;;;;;;0.00;0.00;;;;;;;;;;1717478;28;20315;-71
2022/01/14 00:11:55;;;;;;;0.20;0.20;;;;;;;;;;1718372;28;20201;-71
2022/01/14 00:12:53;;;;;;;0.20;0.20;;;;;;;;;;1718802;28;20197;-71
2022/01/14 00:13:48;;;;;;;0.00;0.00;;;;;;;;;;1718099;28;20228;-71
2022/01/14 00:14:42;;;;;;;0.32;0.32;;;;;;;;;;1719016;28;20205;-71
2022/01/14 00:15:35;;;;;;;0.00;0.00;;;;;;;;;;1718959;28;20690;-71
2022/01/14 00:16:27;;;;;;;0.05;0.05;;;;;;;;;;1719305;28;20185;-71
2022/01/14 00:17:18;;;;;;;0.10;0.10;;;;;;;;;;1720908;28;20212;-71
2022/01/14 00:18:10;;;;;;;0.20;0.20;;;;;;;;;;1718822;28;20211;-71
2022/01/14 00:19:01;;;;;;;0.10;0.10;;;;;;;;;;1718297;28;20623;-71
2022/01/14 00:19:53;;;;;;;0.17;0.17;;;;;;;;;;1717967;28;20204;-71
2022/01/14 00:20:45;;;;;;;0.20;0.20;;;;;;;;;;1719049;28;20625;-71
2022/01/14 00:21:39;;;;;;;0.00;0.00;;;;;;;;;;1718585;28;20637;-71
2022/01/14 00:22:30;;;;;;;0.50;0.50;;;;;;;;;;1718897;28;20728;-71
2022/01/14 00:23:28;;;;;;;0.10;0.10;;;;;;;;;;1718578;28;20845;-71
2022/01/14 00:24:30;;;;;;;0.10;0.10;;;;;;;;;;1718106;28;20247;-71
2022/01/14 00:32:28;;;;;;;0.15;0.15;;;;;;;;;;1718416;28;20228;-71
2022/01/14 00:33:19;;;;;;;0.10;0.10;;;;;;;;;;1718581;28;20216;-71
2022/01/14 00:34:12;;;;;;;0.30;0.30;;;;;;;;;;1719168;28;20215;-71
2022/01/14 00:35:03;;;;;;;0.00;0.00;;;;;;;;;;1718411;28;20209;-71
2022/01/14 00:35:55;;;;;;;0.20;0.20;;;;;;;;;;1716991;28;20220;-71
2022/01/14 00:36:46;;;;;;;0.20;0.20;;;;;;;;;;1717963;28;20205;-71
2022/01/14 00:37:39;;;;;;;0.20;0.20;;;;;;;;;;1718418;28;20211;-71
2022/01/14 00:38:30;;;;;;;0.10;0.10;;;;;;;;;;1718201;28;20213;-71
2022/01/14 00:39:23;;;;;;;0.10;0.10;;;;;;;;;;1718976;28;20586;-71
2022/01/14 00:40:15;;;;;;;0.10;0.10;;;;;;;;;;1717106;28;20208;-71
2022/01/14 00:41:07;;;;;;;0.10;0.10;;;;;;;;;;1717769;28;20259;-71
2022/01/14 00:41:58;;;;;;;0.08;0.08;;;;;;;;;;1718499;28;20632;-71
2022/01/14 00:42:51;;;;;;;0.10;0.10;;;;;;;;;;1718967;28;20553;-71
2022/01/14 00:43:43;;;;;;;0.10;0.10;;;;;;;;;;1717631;28;20212;-71
2022/01/14 00:44:36;;;;;;;0.30;0.30;;;;;;;;;;1719166;28;20485;-71
2022/01/14 00:45:27;;;;;;;0.10;0.10;;;;;;;;;;1716098;28;20241;-71
2022/01/14 00:46:19;;;;;;;0.10;0.10;;;;;;;;;;1718484;28;20205;-71
2022/01/14 00:47:10;;;;;;;0.15;0.15;;;;;;;;;;1718257;28;20209;-71
2022/01/14 00:48:03;;;;;;;0.08;0.08;;;;;;;;;;1718805;28;20290;-71
2022/01/14 00:48:54;;;;;;;0.10;0.10;;;;;;;;;;1718190;28;20590;-71
2022/01/14 00:49:46;;;;;;;0.00;0.00;;;;;;;;;;1717802;28;20297;-71
2022/01/14 00:50:41;;;;;;;0.13;0.13;;;;;;;;;;1716411;28;20237;-71
2022/01/14 00:51:34;;;;;;;0.10;0.10;;;;;;;;;;1717516;28;20609;-71
2022/01/14 00:52:25;;;;;;;0.30;0.30;;;;;;;;;;1718847;28;20209;-71
2022/01/14 00:53:17;;;;;;;0.17;0.17;;;;;;;;;;1718245;28;20208;-71
2022/01/14 00:54:09;;;;;;;0.13;0.13;;;;;;;;;;1719015;28;20535;-71
2022/01/14 00:55:03;;;;;;;0.00;0.00;;;;;;;;;;1715637;28;20204;-71
2022/01/14 00:56:05;;;;;;;0.10;0.10;;;;;;;;;;1716309;28;20260;-71
2022/01/14 00:57:15;;;;;;;0.50;0.50;;;;;;;;;;1718049;28;20194;-71
2022/01/14 00:59:17;;;;;;;0.20;0.20;;;;;;;;;;1717660;28;20196;-71
2022/01/14 01:00:10;;;;;;;0.10;0.10;;;;;;;;;;1716999;28;20726;-71
2022/01/14 01:01:02;;;;;;;0.15;0.15;;;;;;;;;;1716656;28;20248;-71
2022/01/14 01:01:56;;;;;;;0.10;0.10;;;;;;;;;;1717188;28;20209;-71
2022/01/14 01:02:48;;;;;;;0.20;0.20;;;;;;;;;;1717752;28;20243;-71
2022/01/14 01:03:39;;;;;;;0.10;0.10;;;;;;;;;;1717975;28;20201;-71
2022/01/14 01:04:35;;;;;;;0.15;0.15;;;;;;;;;;1718991;28;20213;-71
2022/01/14 01:05:26;;;;;;;0.00;0.00;;;;;;;;;;1716109;28;20205;-71
2022/01/14 01:06:18;;;;;;;0.10;0.10;;;;;;;;;;1718588;28;20211;-71
2022/01/14 01:07:10;;;;;;;0.10;0.10;;;;;;;;;;1716440;28;20298;-71
2022/01/14 01:08:07;;;;;;;0.10;0.10;;;;;;;;;;1718079;28;20207;-71
2022/01/14 01:08:59;;;;;;;0.10;0.10;;;;;;;;;;1718489;28;20208;-71
2022/01/14 01:09:51;;;;;;;0.00;0.00;;;;;;;;;;1717803;28;20212;-71
2022/01/14 01:10:48;;;;;;;0.10;0.10;;;;;;;;;;1716713;28;20251;-71
2022/01/14 01:11:45;;;;;;;0.00;0.00;;;;;;;;;;1717906;28;20880;-71
2022/01/14 01:12:46;;;;;;;0.10;0.10;;;;;;;;;;1717099;28;20208;-71
2022/01/14 01:13:43;;;;;;;0.00;0.00;;;;;;;;;;1717029;28;20225;-71
2022/01/14 01:14:41;;;;;;;0.15;0.15;;;;;;;;;;1718729;28;20209;-71
2022/01/14 01:15:33;;;;;;;0.00;0.00;;;;;;;;;;1716190;28;20324;-71
2022/01/14 01:16:25;;;;;;;0.00;0.00;;;;;;;;;;1718708;28;20274;-71
2022/01/14 01:17:17;;;;;;;0.10;0.10;;;;;;;;;;1718134;28;20208;-71
2022/01/14 01:18:08;;;;;;;0.10;0.10;;;;;;;;;;1718206;28;20205;-71
2022/01/14 01:19:00;;;;;;;0.20;0.20;;;;;;;;;;1718225;28;20804;-71
2022/01/14 01:19:52;;;;;;;0.10;0.10;;;;;;;;;;1717468;28;20240;-71
2022/01/14 01:20:43;;;;;;;0.10;0.10;;;;;;;;;;1716534;28;20727;-71
2022/01/14 01:21:35;;;;;;;0.10;0.10;;;;;;;;;;1717973;28;20204;-71
2022/01/14 01:22:27;;;;;;;0.20;0.20;;;;;;;;;;1718451;28;20220;-71
2022/01/14 01:23:19;;;;;;;0.17;0.17;;;;;;;;;;1717889;28;20236;-71
2022/01/14 01:24:13;;;;;;;0.10;0.10;;;;;;;;;;1718676;28;20838;-71
2022/01/14 01:25:11;;;;;;;0.20;0.20;;;;;;;;;;1717591;28;20292;-71
2022/01/14 01:26:11;;;;;;;0.10;0.10;;;;;;;;;;1715924;28;21113;-71
2022/01/14 01:27:07;;;;;;;0.10;0.10;;;;;;;;;;1717905;28;20274;-71
2022/01/14 01:27:58;;;;;;;0.10;0.10;;;;;;;;;;1718834;28;20200;-71
2022/01/14 01:29:01;;;;;;;0.10;0.10;;;;;;;;;;1717834;28;20216;-71
2022/01/14 01:29:55;;;;;;;0.20;0.20;;;;;;;;;;1718267;28;20292;-71
2022/01/14 01:31:04;;;;;;;0.10;0.10;;;;;;;;;;1716119;28;20666;-71
2022/01/14 01:31:56;;;;;;;0.10;0.10;;;;;;;;;;1717780;28;20205;-71
2022/01/14 01:32:48;;;;;;;0.10;0.10;;;;;;;;;;1716628;28;20240;-71
2022/01/14 01:33:40;;;;;;;0.00;0.00;;;;;;;;;;1717915;28;20364;-71
2022/01/14 01:34:32;;;;;;;0.00;0.00;;;;;;;;;;1718739;28;20539;-71
2022/01/14 01:35:23;;;;;;;0.05;0.05;;;;;;;;;;1715882;28;20385;-71
2022/01/14 01:36:15;;;;;;;0.10;0.10;;;;;;;;;;1719034;28;20200;-71
2022/01/14 01:37:06;;;;;;;0.10;0.10;;;;;;;;;;1717431;28;20205;-71
2022/01/14 01:37:59;;;;;;;0.08;0.08;;;;;;;;;;1717636;28;20631;-71
2022/01/14 01:38:50;;;;;;;0.10;0.10;;;;;;;;;;1718016;28;20279;-71
2022/01/14 01:39:42;;;;;;;0.30;0.30;;;;;;;;;;1718279;28;20683;-71
2022/01/14 01:40:33;;;;;;;0.20;0.20;;;;;;;;;;1716311;28;20232;-71
2022/01/14 01:41:27;;;;;;;0.20;0.20;;;;;;;;;;1718241;28;20463;-71
2022/01/14 01:42:26;;;;;;;0.25;0.25;;;;;;;;;;1718158;28;20213;-71
2022/01/14 01:43:21;;;;;;;0.00;0.00;;;;;;;;;;1717907;28;20284;-71
2022/01/14 01:44:13;;;;;;;0.10;0.10;;;;;;;;;;1718236;28;20205;-71
2022/01/14 01:45:09;;;;;;;0.13;0.13;;;;;;;;;;1717503;28;20223;-71
2022/01/14 01:46:01;;;;;;;0.00;0.00;;;;;;;;;;1715950;28;20232;-71
2022/01/14 01:46:54;;;;;;;0.10;0.10;;;;;;;;;;1718160;28;20196;-71
2022/01/14 01:47:49;;;;;;;0.10;0.10;;;;;;;;;;1718602;28;20266;-71
2022/01/14 01:48:41;;;;;;;0.00;0.00;;;;;;;;;;1717945;28;20705;-71
2022/01/14 01:49:35;;;;;;;0.20;0.20;;;;;;;;;;1717744;28;20389;-71
2022/01/14 01:50:28;;;;;;;0.00;0.00;;;;;;;;;;1715481;28;20201;-71
2022/01/14 01:51:19;;;;;;;0.17;0.17;;;;;;;;;;1719144;28;20245;-71
2022/01/14 01:52:12;;;;;;;0.00;0.00;;;;;;;;;;1718073;28;20232;-71
2022/01/14 01:53:03;;;;;;;0.20;0.20;;;;;;;;;;1718499;28;20725;-71
2022/01/14 01:53:55;;;;;;;0.10;0.10;;;;;;;;;;1718026;28;20236;-71
2022/01/14 01:54:47;;;;;;;0.10;0.10;;;;;;;;;;1718268;28;20205;-71
2022/01/14 01:55:39;;;;;;;0.30;0.30;;;;;;;;;;1715466;28;20252;-71
2022/01/14 01:56:31;;;;;;;0.30;0.30;;;;;;;;;;1718387;28;20212;-71
2022/01/14 01:57:24;;;;;;;0.20;0.20;;;;;;;;;;1717754;28;20240;-71
2022/01/14 01:58:15;;;;;;;0.20;0.20;;;;;;;;;;1717833;28;20205;-71
2022/01/14 01:59:09;;;;;;;0.30;0.30;;;;;;;;;;1718459;28;20217;-71
2022/01/14 02:00:00;;;;;;;0.20;0.20;;;;;;;;;;1717568;28;20205;-71
2022/01/14 02:00:52;;;;;;;0.15;0.15;;;;;;;;;;1716160;28;20274;-71
2022/01/14 02:01:43;;;;;;;0.30;0.30;;;;;;;;;;1717029;28;20543;-71
2022/01/14 02:02:37;;;;;;;0.20;0.20;;;;;;;;;;1718342;28;20580;-71
2022/01/14 02:03:28;;;;;;;0.10;0.10;;;;;;;;;;1718091;28;20208;-71
2022/01/14 02:04:21;;;;;;;0.20;0.20;;;;;;;;;;1718704;28;20205;-71
2022/01/14 02:05:12;;;;;;;0.17;0.17;;;;;;;;;;1716568;28;20593;-71
2022/01/14 02:06:05;;;;;;;0.20;0.20;;;;;;;;;;1717615;28;20232;-71
2022/01/14 02:06:57;;;;;;;0.28;0.28;;;;;;;;;;1717805;28;20213;-71
2022/01/14 02:07:49;;;;;;;0.30;0.30;;;;;;;;;;1718107;28;20197;-71
2022/01/14 02:08:40;;;;;;;0.20;0.20;;;;;;;;;;1717322;28;20283;-71
2022/01/14 02:09:32;;;;;;;0.40;0.40;;;;;;;;;;1718505;28;20663;-71
2022/01/14 02:10:25;;;;;;;0.10;0.10;;;;;;;;;;1715637;28;20708;-71
2022/01/14 02:11:18;;;;;;;0.10;0.10;;;;;;;;;;1718108;28;20197;-71
2022/01/14 02:12:11;;;;;;;0.20;0.20;;;;;;;;;;1717884;28;20216;-71
2022/01/14 02:13:03;;;;;;;0.20;0.20;;;;;;;;;;1718353;28;20220;-71
2022/01/14 02:13:58;;;;;;;0.80;0.80;;;;;;;;;;1717379;28;20209;-71
2022/01/14 02:15:06;;;;;;;0.13;0.13;;;;;;;;;;1718191;28;20209;-71
2022/01/14 02:16:17;;;;;;;0.10;0.10;;;;;;;;;;1722845;28;20239;-71
2022/01/14 02:17:30;;;;;;;0.10;0.10;;;;;;;;;;1724581;28;20290;-71
2022/01/14 02:19:43;;;;;;;0.20;0.20;;;;;;;;;;1722552;28;20669;-71
2022/01/14 02:23:02;;;;;;;0.22;0.22;;;;;;;;;;1724439;28;20263;-71
2022/01/14 02:24:07;;;;;;;0.20;0.20;;;;;;;;;;1725083;28;20203;-71
2022/01/14 02:25:04;;;;;;;0.10;0.10;;;;;;;;;;1724749;28;20523;-71
2022/01/14 02:25:56;;;;;;;0.20;0.20;;;;;;;;;;1723461;28;20238;-71
2022/01/14 02:26:49;;;;;;;0.30;0.30;;;;;;;;;;1724495;28;20638;-71
2022/01/14 02:27:41;;;;;;;0.30;0.30;;;;;;;;;;1724268;28;20208;-71
2022/01/14 02:28:32;;;;;;;0.17;0.17;;;;;;;;;;1724591;28;20519;-71
2022/01/14 02:29:24;;;;;;;0.00;0.00;;;;;;;;;;1724956;28;20208;-71
2022/01/14 02:30:16;;;;;;;0.15;0.15;;;;;;;;;;1723145;28;20562;-71
2022/01/14 02:31:08;;;;;;;0.10;0.10;;;;;;;;;;1723784;28;20251;-71
2022/01/14 02:31:59;;;;;;;0.35;0.35;;;;;;;;;;1723889;28;20255;-71
2022/01/14 02:32:52;;;;;;;0.10;0.10;;;;;;;;;;1725244;28;20212;-71
2022/01/14 02:33:43;;;;;;;0.10;0.10;;;;;;;;;;1724372;28;20204;-71
2022/01/14 02:34:37;;;;;;;0.10;0.10;;;;;;;;;;1725730;28;20201;-71
2022/01/14 02:35:29;;;;;;;0.20;0.20;;;;;;;;;;1722227;28;20240;-71
2022/01/14 02:36:21;;;;;;;0.20;0.20;;;;;;;;;;1725294;28;20203;-71
2022/01/14 02:37:12;;;;;;;0.20;0.20;;;;;;;;;;1723626;28;20570;-71
2022/01/14 02:38:04;;;;;;;0.10;0.10;;;;;;;;;;1723842;28;20270;-71
2022/01/14 02:38:56;;;;;;;0.10;0.10;;;;;;;;;;1724936;28;20246;-71
2022/01/14 02:39:48;;;;;;;0.05;0.05;;;;;;;;;;1724756;28;20196;-71
2022/01/14 02:40:40;;;;;;;0.00;0.00;;;;;;;;;;1722715;28;20239;-71
2022/01/14 02:41:35;;;;;;;0.00;0.00;;;;;;;;;;1724504;28;20216;-71
2022/01/14 02:42:26;;;;;;;0.20;0.20;;;;;;;;;;1724939;28;20209;-71
2022/01/14 02:43:22;;;;;;;0.00;0.00;;;;;;;;;;1724447;28;20208;-71
2022/01/14 02:44:18;;;;;;;0.10;0.10;;;;;;;;;;1723751;28;20232;-71
2022/01/14 02:45:13;;;;;;;0.00;0.00;;;;;;;;;;1723843;28;20242;-71
2022/01/14 02:46:06;;;;;;;0.20;0.20;;;;;;;;;;1716885;28;20260;-71
2022/01/14 02:47:07;;;;;;;0.00;0.00;;;;;;;;;;1717844;28;20635;-71
2022/01/14 02:47:58;;;;;;;0.20;0.20;;;;;;;;;;1718620;28;20205;-71
2022/01/14 02:48:51;;;;;;;0.00;0.00;;;;;;;;;;1717810;28;20197;-71
2022/01/14 02:49:43;;;;;;;0.10;0.10;;;;;;;;;;1717788;28;20639;-71
2022/01/14 02:50:41;;;;;;;0.10;0.10;;;;;;;;;;1716049;28;20237;-71
2022/01/14 02:51:32;;;;;;;0.00;0.00;;;;;;;;;;1717886;28;20233;-71
2022/01/14 02:52:39;;;;;;;0.10;0.10;;;;;;;;;;1718116;28;20320;-71
2022/01/14 02:53:44;;;;;;;0.13;0.13;;;;;;;;;;1717729;28;20202;-71
2022/01/14 02:54:41;;;;;;;0.20;0.20;;;;;;;;;;1717041;28;20233;-71
2022/01/14 02:55:35;;;;;;;0.10;0.10;;;;;;;;;;1715897;28;20447;-71
2022/01/14 02:56:30;;;;;;;0.10;0.10;;;;;;;;;;1711875;28;20635;-71
2022/01/14 02:57:22;;;;;;;0.08;0.08;;;;;;;;;;1718136;28;20551;-71
2022/01/14 02:58:13;;;;;;;0.20;0.20;;;;;;;;;;1718114;28;20599;-71
2022/01/14 02:59:07;;;;;;;0.00;0.00;;;;;;;;;;1718133;28;20327;-71
2022/01/14 02:59:59;;;;;;;0.20;0.20;;;;;;;;;;1717688;28;20663;-71
2022/01/14 03:00:53;;;;;;;0.17;0.17;;;;;;;;;;1715029;28;20233;-71
2022/01/14 03:01:45;;;;;;;0.15;0.15;;;;;;;;;;1717452;28;20540;-71
2022/01/14 03:02:38;;;;;;;0.10;0.10;;;;;;;;;;1717663;28;20205;-71
2022/01/14 03:03:31;;;;;;;0.00;0.00;;;;;;;;;;1717820;28;20636;-71
2022/01/14 03:04:23;;;;;;;0.10;0.10;;;;;;;;;;1718120;28;20571;-72
2022/01/14 03:05:16;;;;;;;0.10;0.10;;;;;;;;;;1716435;28;20693;-71
2022/01/14 03:06:09;;;;;;;0.20;0.20;;;;;;;;;;1717909;28;20237;-71
2022/01/14 03:07:00;;;;;;;0.10;0.10;;;;;;;;;;1717457;28;20232;-71
2022/01/14 03:07:52;;;;;;;0.22;0.22;;;;;;;;;;1718539;28;20205;-71
2022/01/14 03:08:43;;;;;;;0.10;0.10;;;;;;;;;;1716741;28;20280;-71
2022/01/14 03:09:36;;;;;;;0.03;0.03;;;;;;;;;;1719360;28;20225;-71
2022/01/14 03:10:27;;;;;;;0.00;0.00;;;;;;;;;;1716605;28;20224;-71
2022/01/14 03:11:24;;;;;;;0.00;0.00;;;;;;;;;;1719271;28;20216;-71
2022/01/14 03:12:16;;;;;;;0.10;0.10;;;;;;;;;;1719450;28;20232;-71
2022/01/14 03:13:08;;;;;;;0.00;0.00;;;;;;;;;;1719272;28;20208;-71
2022/01/14 03:14:00;;;;;;;0.20;0.20;;;;;;;;;;1719016;28;20205;-71
2022/01/14 03:14:53;;;;;;;0.20;0.20;;;;;;;;;;1718005;28;20209;-71
2022/01/14 03:15:44;;;;;;;0.08;0.08;;;;;;;;;;1717118;28;20237;-71
2022/01/14 03:16:40;;;;;;;0.10;0.10;;;;;;;;;;1720836;28;20216;-71
2022/01/14 03:17:31;;;;;;;0.00;0.00;;;;;;;;;;1718406;28;20212;-71
2022/01/14 03:18:32;;;;;;;0.08;0.08;;;;;;;;;;1718983;28;20295;-71
2022/01/14 03:19:25;;;;;;;0.03;0.03;;;;;;;;;;1718489;28;20403;-71
2022/01/14 03:20:43;;;;;;;0.05;0.05;;;;;;;;;;1717109;28;20221;-71
2022/01/14 03:21:39;;;;;;;0.00;0.00;;;;;;;;;;1713544;28;20229;-71
2022/01/14 03:22:35;;;;;;;0.00;0.00;;;;;;;;;;1718708;28;20197;-71
2022/01/14 03:23:26;;;;;;;0.00;0.00;;;;;;;;;;1718953;28;20600;-71
2022/01/14 03:25:35;;;;;;;0.05;0.05;;;;;;;;;;1719620;28;20291;-71
2022/01/14 03:25:48;;;;;;;0.00;0.00;;;;;;;;;;1716426;28;20294;-71
2022/01/14 03:26:40;;;;;;;0.00;0.00;;;;;;;;;;1718548;28;20672;-71
2022/01/14 03:27:31;;;;;;;0.00;0.00;;;;;;;;;;1718272;28;20477;-71
2022/01/14 03:28:24;;;;;;;0.10;0.10;;;;;;;;;;1718905;28;20291;-71
2022/01/14 03:29:16;;;;;;;0.25;0.25;;;;;;;;;;1719325;28;20742;-71
2022/01/14 03:30:12;;;;;;;0.28;0.28;;;;;;;;;;1717759;28;20236;-71
2022/01/14 03:31:03;;;;;;;0.10;0.10;;;;;;;;;;1718151;28;20703;-71
2022/01/14 03:31:55;;;;;;;0.08;0.08;;;;;;;;;;1718907;28;20225;-71
2022/01/14 03:32:46;;;;;;;0.08;0.08;;;;;;;;;;1718772;28;20209;-71
2022/01/14 03:33:39;;;;;;;0.20;0.20;;;;;;;;;;1718770;28;20490;-71
2022/01/14 03:34:31;;;;;;;0.20;0.20;;;;;;;;;;1717576;28;20225;-71
2022/01/14 03:35:24;;;;;;;0.20;0.20;;;;;;;;;;1717034;28;20570;-71
2022/01/14 03:36:16;;;;;;;0.00;0.00;;;;;;;;;;1719069;28;20221;-71
2022/01/14 03:37:08;;;;;;;0.20;0.20;;;;;;;;;;1718926;28;20208;-71
2022/01/14 03:37:59;;;;;;;0.05;0.05;;;;;;;;;;1718797;28;20211;-71
2022/01/14 03:38:51;;;;;;;0.10;0.10;;;;;;;;;;1717942;28;20327;-71
2022/01/14 03:39:42;;;;;;;0.00;0.00;;;;;;;;;;1719208;28;20535;-71
2022/01/14 03:40:34;;;;;;;0.00;0.00;;;;;;;;;;1716481;28;20708;-71
2022/01/14 03:41:26;;;;;;;0.13;0.13;;;;;;;;;;1718906;28;20591;-71
2022/01/14 03:42:18;;;;;;;0.00;0.00;;;;;;;;;;1718779;28;20681;-71
2022/01/14 03:43:10;;;;;;;0.20;0.20;;;;;;;;;;1719183;28;20283;-71
2022/01/14 03:44:02;;;;;;;0.10;0.10;;;;;;;;;;1718938;28;20205;-71
2022/01/14 03:44:54;;;;;;;0.10;0.10;;;;;;;;;;1718276;28;20271;-71
2022/01/14 03:45:48;;;;;;;0.17;0.17;;;;;;;;;;1721971;28;20235;-71
2022/01/14 03:46:40;;;;;;;0.00;0.00;;;;;;;;;;1725498;28;20305;-71
2022/01/14 03:47:32;;;;;;;0.32;0.32;;;;;;;;;;1725913;28;20731;-71
2022/01/14 03:48:23;;;;;;;0.00;0.00;;;;;;;;;;1725474;28;20211;-71
2022/01/14 03:49:16;;;;;;;0.10;0.10;;;;;;;;;;1726101;28;20228;-71
2022/01/14 03:50:07;;;;;;;0.00;0.00;;;;;;;;;;1724002;28;20216;-71
2022/01/14 03:51:01;;;;;;;0.00;0.00;;;;;;;;;;1724596;28;20563;-71
2022/01/14 03:51:52;;;;;;;0.17;0.17;;;;;;;;;;1725562;28;20677;-71
2022/01/14 03:52:44;;;;;;;0.10;0.10;;;;;;;;;;1725800;28;20670;-71
2022/01/14 03:53:35;;;;;;;0.00;0.00;;;;;;;;;;1725504;28;20215;-71
2022/01/14 03:54:29;;;;;;;0.00;0.00;;;;;;;;;;1726045;28;20238;-71
2022/01/14 03:55:20;;;;;;;0.10;0.10;;;;;;;;;;1722095;28;20212;-71
2022/01/14 03:56:13;;;;;;;0.10;0.10;;;;;;;;;;1718887;28;20295;-71
2022/01/14 03:57:04;;;;;;;0.10;0.10;;;;;;;;;;1718406;28;20212;-71
2022/01/14 03:57:56;;;;;;;0.00;0.00;;;;;;;;;;1719171;28;20241;-71
2022/01/14 03:58:47;;;;;;;0.00;0.00;;;;;;;;;;1718600;28;20631;-71
2022/01/14 03:59:39;;;;;;;0.00;0.00;;;;;;;;;;1719235;28;20221;-71
2022/01/14 04:00:31;;;;;;;0.00;0.00;;;;;;;;;;1715910;28;20754;-71
2022/01/14 04:01:23;;;;;;;0.00;0.00;;;;;;;;;;1718980;28;20217;-71
2022/01/14 04:02:14;;;;;;;0.00;0.00;;;;;;;;;;1718660;28;20245;-71
2022/01/14 04:03:08;;;;;;;0.00;0.00;;;;;;;;;;1718194;28;20209;-71
2022/01/14 04:03:59;;;;;;;0.10;0.10;;;;;;;;;;1719073;28;20208;-71
2022/01/14 04:04:51;;;;;;;0.00;0.00;;;;;;;;;;1718933;28;20297;-71
2022/01/14 04:05:42;;;;;;;0.10;0.10;;;;;;;;;;1716858;28;20232;-71
2022/01/14 04:06:36;;;;;;;0.30;0.30;;;;;;;;;;1718985;28;20204;-71
2022/01/14 04:07:27;;;;;;;0.05;0.05;;;;;;;;;;1718596;28;20647;-71
2022/01/14 04:08:19;;;;;;;0.20;0.20;;;;;;;;;;1718585;28;20212;-71
2022/01/14 04:09:10;;;;;;;0.00;0.00;;;;;;;;;;1717523;28;20207;-71
2022/01/14 04:10:03;;;;;;;0.00;0.00;;;;;;;;;;1718623;28;20226;-71
2022/01/14 04:10:56;;;;;;;0.00;0.00;;;;;;;;;;1717257;28;20320;-71
2022/01/14 04:11:48;;;;;;;0.10;0.10;;;;;;;;;;1718513;28;20204;-71
2022/01/14 04:12:47;;;;;;;0.13;0.13;;;;;;;;;;1718295;28;20216;-71
2022/01/14 04:13:47;;;;;;;0.00;0.00;;;;;;;;;;1718359;28;20208;-71
2022/01/14 04:15:48;;;;;;;0.00;0.00;;;;;;;;;;1716880;28;20340;-71
2022/01/14 04:16:41;;;;;;;0.10;0.10;;;;;;;;;;1718794;28;20232;-72
2022/01/14 04:17:32;;;;;;;0.00;0.00;;;;;;;;;;1718934;28;20231;-71
2022/01/14 04:18:25;;;;;;;0.00;0.00;;;;;;;;;;1718672;28;20268;-71
2022/01/14 04:19:16;;;;;;;0.03;0.03;;;;;;;;;;1718925;28;20238;-71
2022/01/14 04:20:10;;;;;;;0.00;0.00;;;;;;;;;;1718207;28;20228;-71
2022/01/14 04:21:03;;;;;;;0.00;0.00;;;;;;;;;;1715707;28;20237;-71
2022/01/14 04:21:56;;;;;;;0.00;0.00;;;;;;;;;;1718332;28;20263;-71
2022/01/14 04:22:48;;;;;;;0.20;0.20;;;;;;;;;;1719097;28;20672;-71
2022/01/14 04:23:40;;;;;;;0.03;0.03;;;;;;;;;;1718418;28;20204;-71
2022/01/14 04:24:31;;;;;;;0.10;0.10;;;;;;;;;;1716964;28;20219;-71
2022/01/14 04:25:24;;;;;;;0.25;0.25;;;;;;;;;;1716813;28;20227;-71
2022/01/14 04:26:15;;;;;;;0.10;0.10;;;;;;;;;;1718878;28;20669;-71
2022/01/14 04:27:07;;;;;;;0.05;0.05;;;;;;;;;;1717856;28;20618;-71
2022/01/14 04:27:58;;;;;;;0.10;0.10;;;;;;;;;;1718956;28;20255;-71
2022/01/14 04:28:50;;;;;;;0.00;0.00;;;;;;;;;;1718794;28;20205;-71
2022/01/14 04:29:42;;;;;;;0.00;0.00;;;;;;;;;;1718390;28;20216;-71
2022/01/14 04:30:34;;;;;;;0.00;0.00;;;;;;;;;;1716067;28;20250;-71
2022/01/14 04:31:25;;;;;;;0.00;0.00;;;;;;;;;;1718765;28;20269;-71
2022/01/14 04:32:18;;;;;;;0.00;0.00;;;;;;;;;;1718664;28;20205;-71
2022/01/14 04:33:09;;;;;;;0.00;0.00;;;;;;;;;;1718639;28;20216;-71
2022/01/14 04:34:01;;;;;;;0.00;0.00;;;;;;;;;;1718420;28;20294;-71
2022/01/14 04:34:52;;;;;;;0.00;0.00;;;;;;;;;;1718827;28;20648;-71
2022/01/14 04:35:44;;;;;;;0.10;0.10;;;;;;;;;;1716491;28;20340;-71
2022/01/14 04:36:39;;;;;;;0.00;0.00;;;;;;;;;;1718708;28;20553;-71
2022/01/14 04:37:32;;;;;;;0.10;0.10;;;;;;;;;;1716942;28;20223;-71
2022/01/14 04:38:25;;;;;;;0.00;0.00;;;;;;;;;;1716413;28;20686;-71
2022/01/14 04:39:16;;;;;;;0.00;0.00;;;;;;;;;;1718602;28;20746;-71
2022/01/14 04:40:09;;;;;;;0.13;0.13;;;;;;;;;;1717154;28;20303;-71
2022/01/14 04:41:01;;;;;;;0.22;0.22;;;;;;;;;;1723729;28;20237;-71
2022/01/14 04:41:53;;;;;;;0.08;0.08;;;;;;;;;;1725099;28;20303;-71
2022/01/14 04:42:45;;;;;;;0.00;0.00;;;;;;;;;;1725674;28;20208;-71
2022/01/14 04:43:37;;;;;;;0.10;0.10;;;;;;;;;;1725042;28;21155;-71
2022/01/14 04:44:28;;;;;;;0.10;0.10;;;;;;;;;;1725665;28;20547;-71
2022/01/14 04:45:39;;;;;;;0.08;0.08;;;;;;;;;;1722964;28;20238;-71
2022/01/14 04:46:59;;;;;;;0.10;0.10;;;;;;;;;;1725059;28;20670;-71
2022/01/14 04:47:52;;;;;;;0.10;0.10;;;;;;;;;;1723998;28;20278;-71
2022/01/14 04:48:43;;;;;;;0.20;0.20;;;;;;;;;;1725070;28;20210;-71
2022/01/14 04:49:35;;;;;;;0.10;0.10;;;;;;;;;;1725607;28;20218;-71
2022/01/14 04:50:26;;;;;;;0.15;0.15;;;;;;;;;;1722855;28;21681;-71
2022/01/14 04:51:20;;;;;;;0.20;0.20;;;;;;;;;;1724565;28;20240;-71
2022/01/14 04:52:12;;;;;;;0.10;0.10;;;;;;;;;;1724533;28;20208;-71
2022/01/14 04:53:06;;;;;;;0.10;0.10;;;;;;;;;;1725629;28;20298;-71
2022/01/14 04:53:57;;;;;;;0.00;0.00;;;;;;;;;;1725392;28;20200;-71
2022/01/14 04:54:49;;;;;;;0.00;0.00;;;;;;;;;;1725281;28;20526;-71
2022/01/14 04:55:40;;;;;;;0.10;0.10;;;;;;;;;;1722961;28;20511;-71
2022/01/14 04:56:33;;;;;;;0.10;0.10;;;;;;;;;;1725084;28;20865;-71
2022/01/14 04:57:24;;;;;;;0.10;0.10;;;;;;;;;;1724898;28;20221;-71
2022/01/14 04:58:16;;;;;;;0.10;0.10;;;;;;;;;;1724929;28;20204;-71
2022/01/14 04:59:07;;;;;;;0.00;0.00;;;;;;;;;;1725173;28;20569;-71
2022/01/14 05:00:00;;;;;;;0.08;0.08;;;;;;;;;;1724936;28;20291;-71
2022/01/14 05:00:51;;;;;;;0.10;0.10;;;;;;;;;;1722251;28;20511;-71
2022/01/14 05:01:43;;;;;;;0.10;0.10;;;;;;;;;;1724468;28;20643;-71
2022/01/14 05:02:35;;;;;;;0.05;0.05;;;;;;;;;;1725597;28;20214;-71
2022/01/14 05:03:27;;;;;;;0.10;0.10;;;;;;;;;;1725020;28;20864;-71
2022/01/14 05:04:19;;;;;;;0.20;0.20;;;;;;;;;;1724967;28;20694;-71
2022/01/14 05:05:16;;;;;;;0.00;0.00;;;;;;;;;;1724665;28;20200;-71
2022/01/14 05:06:07;;;;;;;0.00;0.00;;;;;;;;;;1724098;28;20228;-71
2022/01/14 05:07:02;;;;;;;0.00;0.00;;;;;;;;;;1725851;28;20254;-71
2022/01/14 05:07:54;;;;;;;0.00;0.00;;;;;;;;;;1724006;28;20297;-71
2022/01/14 05:08:47;;;;;;;0.10;0.10;;;;;;;;;;1725128;28;20309;-71
2022/01/14 05:09:43;;;;;;;0.30;0.30;;;;;;;;;;1725264;28;20201;-71
2022/01/14 05:10:47;;;;;;;0.10;0.10;;;;;;;;;;1722514;28;20238;-71
2022/01/14 05:11:41;;;;;;;0.08;0.08;;;;;;;;;;1724841;28;20193;-71
2022/01/14 05:12:34;;;;;;;0.00;0.00;;;;;;;;;;1724363;28;20566;-71
2022/01/14 05:13:25;;;;;;;0.00;0.00;;;;;;;;;;1725149;28;20210;-71
2022/01/14 05:14:18;;;;;;;0.00;0.00;;;;;;;;;;1725562;28;20292;-71
2022/01/14 05:15:13;;;;;;;0.00;0.00;;;;;;;;;;1724233;28;20212;-71
2022/01/14 05:16:05;;;;;;;0.00;0.00;;;;;;;;;;1722715;28;20239;-71
2022/01/14 05:16:56;;;;;;;0.08;0.08;;;;;;;;;;1724771;28;20210;-71
2022/01/14 05:17:49;;;;;;;0.00;0.00;;;;;;;;;;1725342;28;20569;-71
2022/01/14 05:18:40;;;;;;;0.00;0.00;;;;;;;;;;1725162;28;20200;-71
2022/01/14 05:19:33;;;;;;;0.00;0.00;;;;;;;;;;1723671;28;20586;-71
2022/01/14 05:20:24;;;;;;;0.00;0.00;;;;;;;;;;1722399;28;20258;-71
2022/01/14 05:21:17;;;;;;;0.10;0.10;;;;;;;;;;1725466;28;20202;-71
2022/01/14 05:22:08;;;;;;;0.00;0.00;;;;;;;;;;1724322;28;20705;-71
2022/01/14 05:23:00;;;;;;;0.00;0.00;;;;;;;;;;1725175;28;20537;-71
2022/01/14 05:23:53;;;;;;;0.20;0.20;;;;;;;;;;1726109;28;20207;-71
2022/01/14 05:24:45;;;;;;;0.00;0.00;;;;;;;;;;1725591;28;20638;-71
2022/01/14 05:25:36;;;;;;;0.00;0.00;;;;;;;;;;1722740;28;20294;-71
2022/01/14 05:26:28;;;;;;;0.10;0.10;;;;;;;;;;1725189;28;20270;-71
2022/01/14 05:27:20;;;;;;;0.00;0.00;;;;;;;;;;1725076;28;20212;-71
2022/01/14 05:28:12;;;;;;;0.00;0.00;;;;;;;;;;1724606;28;20208;-71
2022/01/14 05:29:03;;;;;;;0.00;0.00;;;;;;;;;;1724858;28;20543;-71
2022/01/14 05:29:55;;;;;;;0.00;0.00;;;;;;;;;;1725018;28;20200;-71
2022/01/14 05:30:46;;;;;;;0.00;0.00;;;;;;;;;;1722618;28;20239;-71
2022/01/14 05:31:43;;;;;;;0.00;0.00;;;;;;;;;;1724935;28;20593;-71
2022/01/14 05:32:34;;;;;;;0.00;0.00;;;;;;;;;;1724355;28;20216;-71
2022/01/14 05:33:26;;;;;;;0.10;0.10;;;;;;;;;;1724533;28;20266;-71